Avon Downs, Australia
Current Conditions -  °F | °C
As of 7:30 AM on Tuesday 21 Oct 2014 (Local Time) from YBMA Reporting Station
Clear Clear  
Wind Chill: 82°   Ceiling: Unl
Heat Index: 82°   Visibility: 6mi
Dew Point: 41°   Wind: 13mph
Humidity: 23%   Direction: 50°NE
Pressure: 30.12"   Gusts: NA
Location:  20.02°S, 137.67°E
Report Text: YBMA 202230Z AUTO 05011KT 9999 // NCD 28/05 Q1020
Loading
Personal Weather Stations






























Interactive Weather Map
Tropical Storm Tracking
New forecast layout! Learn more

10-Day Weather Forecast

Advertisements
Track Severe Weather on mobile